Time;durP1;ratioP1;P1;durP2;ratioP2;P2;SDS_P1;SDS_P2;PMS_P1;PMS_P2;Temp;Humidity;BMP_temperature;BMP_pressure;BME280_temperature;BME280_humidity;BME280_pressure;Samples;Min_cycle;Max_cycle;Signal;HPM_P1;HPM_P2
2022/09/04 00:00:07;;;;;;;2.28;1.90;;;;;;;;;;2034319;29;20529;-89
2022/09/04 00:01:17;;;;;;;2.58;1.65;;;;;;;;;;2030760;29;20020;-88
2022/09/04 00:02:37;;;;;;;2.97;2.00;;;;;;;;;;2024206;29;20024;-89
2022/09/04 00:03:57;;;;;;;2.78;2.08;;;;;;;;;;2025536;29;20064;-89
2022/09/04 00:05:24;;;;;;;3.25;1.85;;;;;;;;;;2025568;29;20537;-89
2022/09/04 00:06:31;;;;;;;2.72;2.00;;;;;;;;;;2034336;29;20015;-88
2022/09/04 00:07:47;;;;;;;1.95;1.75;;;;;;;;;;2037858;29;20713;-89
2022/09/04 00:08:50;;;;;;;3.58;1.98;;;;;;;;;;2024995;29;20484;-89
2022/09/04 00:10:08;;;;;;;3.00;1.95;;;;;;;;;;2031139;29;20028;-89
2022/09/04 00:11:31;;;;;;;4.20;1.90;;;;;;;;;;2030777;29;20020;-89
2022/09/04 00:12:43;;;;;;;3.08;1.90;;;;;;;;;;2030724;29;20024;-89
2022/09/04 00:13:56;;;;;;;6.05;2.65;;;;;;;;;;2032352;29;20036;-88
2022/09/04 00:15:13;;;;;;;2.55;1.83;;;;;;;;;;2039524;29;20167;-89
2022/09/04 00:16:19;;;;;;;2.58;2.10;;;;;;;;;;2039515;29;20039;-88
2022/09/04 00:17:45;;;;;;;4.03;2.00;;;;;;;;;;2030913;29;20022;-88
2022/09/04 00:19:01;;;;;;;2.28;1.77;;;;;;;;;;2030657;29;20464;-88
2022/09/04 00:20:10;;;;;;;3.30;1.98;;;;;;;;;;2033071;29;20364;-89
2022/09/04 00:21:20;;;;;;;3.83;2.20;;;;;;;;;;2030881;29;20028;-88
2022/09/04 00:22:38;;;;;;;2.42;2.00;;;;;;;;;;2032240;29;20550;-88
2022/09/04 00:23:52;;;;;;;3.45;1.75;;;;;;;;;;2031078;29;20055;-89
2022/09/04 00:25:08;;;;;;;2.58;1.70;;;;;;;;;;2024896;29;20028;-89
2022/09/04 00:26:20;;;;;;;1.92;1.45;;;;;;;;;;1694043;29;10001520;-90
2022/09/04 00:27:25;;;;;;;3.15;1.95;;;;;;;;;;1698792;29;10001647;-90
2022/09/04 00:28:41;;;;;;;2.47;1.83;;;;;;;;;;2030922;29;20020;-90
2022/09/04 00:30:04;;;;;;;4.25;1.80;;;;;;;;;;1680004;29;10190721;-90
2022/09/04 00:31:37;;;;;;;5.32;2.15;;;;;;;;;;2025876;29;20411;-90
2022/09/04 00:32:38;;;;;;;2.58;1.63;;;;;;;;;;2027318;29;20415;-90
2022/09/04 00:33:57;;;;;;;3.38;2.17;;;;;;;;;;2023106;29;20025;-90
2022/09/04 00:35:14;;;;;;;2.97;1.85;;;;;;;;;;2025316;29;20040;-90
2022/09/04 00:36:16;;;;;;;3.53;2.17;;;;;;;;;;2025210;29;20031;-89
2022/09/04 00:37:21;;;;;;;2.75;1.80;;;;;;;;;;2023204;29;20035;-89
2022/09/04 00:38:27;;;;;;;2.33;1.83;;;;;;;;;;2031156;29;20020;-89
2022/09/04 00:39:43;;;;;;;2.70;1.80;;;;;;;;;;2039196;29;20090;-88
2022/09/04 00:41:09;;;;;;;3.45;2.00;;;;;;;;;;2030812;29;20087;-88
2022/09/04 00:42:44;;;;;;;3.03;1.85;;;;;;;;;;2025573;29;20036;-88
2022/09/04 00:43:56;;;;;;;3.00;1.80;;;;;;;;;;2031064;29;20029;-88
2022/09/04 00:45:14;;;;;;;3.78;2.15;;;;;;;;;;2032444;29;20032;-89
2022/09/04 00:46:56;;;;;;;2.95;1.77;;;;;;;;;;2030801;29;20032;-88
2022/09/04 00:48:16;;;;;;;;;;;;;;;;;;2028810;29;20080;-88
2022/09/04 00:49:35;;;;;;;2.40;1.90;;;;;;;;;;2039017;29;19915;-89
2022/09/04 00:50:58;;;;;;;2.67;2.00;;;;;;;;;;2031636;29;20032;-89
2022/09/04 00:52:35;;;;;;;4.25;2.03;;;;;;;;;;2031725;29;20024;-89
2022/09/04 00:54:09;;;;;;;2.08;1.77;;;;;;;;;;2035855;29;20030;-90
2022/09/04 00:55:15;;;;;;;4.80;2.15;;;;;;;;;;2030789;29;20039;-90
2022/09/04 00:56:44;;;;;;;3.15;1.90;;;;;;;;;;2032875;29;20028;-89
2022/09/04 00:57:47;;;;;;;5.20;2.67;;;;;;;;;;2040823;29;20549;-89
2022/09/04 00:59:26;;;;;;;9.13;2.13;;;;;;;;;;2035228;29;20024;-89
2022/09/04 01:00:27;;;;;;;3.03;2.10;;;;;;;;;;2026788;29;20167;-88
2022/09/04 01:01:28;;;;;;;3.05;2.00;;;;;;;;;;2026164;29;20487;-89
2022/09/04 01:02:44;;;;;;;2.92;2.00;;;;;;;;;;2032278;29;20038;-89
2022/09/04 01:04:15;;;;;;;2.80;1.90;;;;;;;;;;2040982;29;20107;-89
2022/09/04 01:05:34;;;;;;;2.20;1.60;;;;;;;;;;2026313;29;20040;-89
2022/09/04 01:07:22;;;;;;;2.40;2.08;;;;;;;;;;2026869;29;20043;-89
2022/09/04 01:08:41;;;;;;;2.60;1.98;;;;;;;;;;2029744;29;20120;-90
2022/09/04 01:10:01;;;;;;;2.20;1.65;;;;;;;;;;2040074;29;20485;-90
2022/09/04 01:11:10;;;;;;;3.50;2.05;;;;;;;;;;2031961;29;20082;-90
2022/09/04 01:12:48;;;;;;;2.58;2.03;;;;;;;;;;2033155;29;20472;-89
2022/09/04 01:13:51;;;;;;;2.50;1.75;;;;;;;;;;2031870;29;20054;-89
2022/09/04 01:15:16;;;;;;;3.08;2.20;;;;;;;;;;2032398;29;20020;-89
2022/09/04 01:16:40;;;;;;;3.08;2.13;;;;;;;;;;2031948;29;20032;-89
2022/09/04 01:17:51;;;;;;;2.38;1.95;;;;;;;;;;2035261;29;20086;-89
2022/09/04 01:19:27;;;;;;;3.00;2.15;;;;;;;;;;2040611;29;20094;-89
2022/09/04 01:20:46;;;;;;;5.53;2.40;;;;;;;;;;2040633;29;20373;-89
2022/09/04 01:21:49;;;;;;;2.47;2.20;;;;;;;;;;2032223;29;20024;-89
2022/09/04 01:23:23;;;;;;;2.53;1.92;;;;;;;;;;2024382;29;20036;-89
2022/09/04 01:24:31;;;;;;;3.13;2.03;;;;;;;;;;2036529;29;20094;-89
2022/09/04 01:25:51;;;;;;;2.45;1.80;;;;;;;;;;2040695;29;20035;-89
2022/09/04 01:27:19;;;;;;;2.35;1.95;;;;;;;;;;2031843;29;20501;-89
2022/09/04 01:28:45;;;;;;;3.80;2.20;;;;;;;;;;2027905;29;20035;-91
2022/09/04 01:30:06;;;;;;;3.80;1.88;;;;;;;;;;2034735;29;20407;-90
2022/09/04 01:31:27;;;;;;;3.08;2.30;;;;;;;;;;2031869;29;20184;-87
2022/09/04 01:32:34;;;;;;;3.00;1.97;;;;;;;;;;2034646;29;20036;-89
2022/09/04 01:33:49;;;;;;;2.53;1.98;;;;;;;;;;2031828;29;20116;-89
2022/09/04 01:34:50;;;;;;;3.42;2.42;;;;;;;;;;2026092;29;20028;-90
2022/09/04 01:36:16;;;;;;;2.83;2.13;;;;;;;;;;2024077;29;20564;-89
2022/09/04 01:37:47;;;;;;;4.32;2.42;;;;;;;;;;2035337;29;20036;-89
2022/09/04 01:39:05;;;;;;;;;;;;;;;;;;2032289;29;20139;-89
2022/09/04 01:40:21;;;;;;;3.20;2.08;;;;;;;;;;2034261;29;20001;-89
2022/09/04 01:41:37;;;;;;;2.85;2.17;;;;;;;;;;2032007;29;20035;-89
2022/09/04 01:42:54;;;;;;;3.72;2.33;;;;;;;;;;2025979;29;20064;-89
2022/09/04 01:43:55;;;;;;;4.03;2.45;;;;;;;;;;2026129;29;20533;-90
2022/09/04 01:44:56;;;;;;;3.55;2.20;;;;;;;;;;2032429;29;20046;-90
2022/09/04 01:46:11;;;;;;;2.70;2.15;;;;;;;;;;2032258;29;20055;-89
2022/09/04 01:47:24;;;;;;;3.70;2.60;;;;;;;;;;2033820;29;20024;-90
2022/09/04 01:48:40;;;;;;;4.55;2.42;;;;;;;;;;2040480;29;20027;-89
2022/09/04 01:49:50;;;;;;;2.90;1.90;;;;;;;;;;2031542;29;20031;-89
2022/09/04 01:50:55;;;;;;;3.80;2.57;;;;;;;;;;1687362;29;10001303;-89
2022/09/04 01:52:07;;;;;;;2.83;2.20;;;;;;;;;;2032175;29;20036;-89
2022/09/04 01:53:19;;;;;;;3.55;2.28;;;;;;;;;;2038069;29;20486;-89
2022/09/04 01:54:31;;;;;;;4.50;3.05;;;;;;;;;;2025452;29;20032;-89
2022/09/04 01:56:06;;;;;;;2.77;2.23;;;;;;;;;;1903358;29;10309505;-89
2022/09/04 01:57:14;;;;;;;4.07;2.50;;;;;;;;;;2036412;29;20304;-89
2022/09/04 01:58:26;;;;;;;3.08;2.55;;;;;;;;;;2031750;29;20035;-89
2022/09/04 01:59:35;;;;;;;3.35;2.63;;;;;;;;;;2025404;29;20437;-89
2022/09/04 02:01:03;;;;;;;4.10;2.53;;;;;;;;;;2024794;29;20059;-89
2022/09/04 02:02:33;;;;;;;4.60;2.25;;;;;;;;;;2027268;29;20611;-89
2022/09/04 02:03:55;;;;;;;4.03;2.63;;;;;;;;;;2038407;29;20171;-89
2022/09/04 02:05:05;;;;;;;3.95;2.38;;;;;;;;;;2040272;29;20098;-89
2022/09/04 02:06:26;;;;;;;4.63;2.88;;;;;;;;;;2031682;29;20673;-89
2022/09/04 02:07:32;;;;;;;3.40;2.35;;;;;;;;;;2033432;29;20042;-89
2022/09/04 02:08:55;;;;;;;3.40;2.53;;;;;;;;;;2031656;29;20044;-89
2022/09/04 02:09:59;;;;;;;3.03;2.42;;;;;;;;;;2034883;29;20043;-89
2022/09/04 02:11:09;;;;;;;3.90;2.75;;;;;;;;;;2031371;29;20136;-89
2022/09/04 02:12:13;;;;;;;;;;;;;;;;;;2033810;29;20148;-88
2022/09/04 02:13:39;;;;;;;3.05;2.22;;;;;;;;;;2031471;29;19918;-89
2022/09/04 02:14:45;;;;;;;3.78;2.90;;;;;;;;;;2026867;29;20405;-89
2022/09/04 02:16:04;;;;;;;4.00;2.85;;;;;;;;;;2032429;29;20032;-89
2022/09/04 02:17:19;;;;;;;4.13;2.67;;;;;;;;;;2040006;29;20382;-89
2022/09/04 02:18:30;;;;;;;3.92;2.40;;;;;;;;;;2040004;29;20020;-89
2022/09/04 02:19:54;;;;;;;4.80;3.08;;;;;;;;;;2039977;29;20542;-89
2022/09/04 02:21:17;;;;;;;3.13;2.65;;;;;;;;;;2040167;29;20031;-89
2022/09/04 02:22:47;;;;;;;3.47;2.60;;;;;;;;;;2040018;29;20055;-89
2022/09/04 02:24:16;;;;;;;4.72;2.70;;;;;;;;;;2024805;29;20445;-88
2022/09/04 02:25:28;;;;;;;6.68;2.97;;;;;;;;;;2027507;29;20172;-88
2022/09/04 02:26:31;;;;;;;4.28;2.70;;;;;;;;;;2040045;29;20355;-88
2022/09/04 02:27:46;;;;;;;5.70;2.60;;;;;;;;;;2031632;29;20509;-88
2022/09/04 02:29:21;;;;;;;6.13;2.70;;;;;;;;;;2025526;29;20158;-88
2022/09/04 02:30:22;;;;;;;3.38;2.33;;;;;;;;;;2015358;29;20566;-88
2022/09/04 02:31:28;;;;;;;4.03;2.63;;;;;;;;;;2015529;29;20168;-88
2022/09/04 02:32:43;;;;;;;4.03;2.50;;;;;;;;;;2019280;29;20055;-88
2022/09/04 02:34:08;;;;;;;3.83;2.70;;;;;;;;;;2031515;29;20036;-88
2022/09/04 02:35:26;;;;;;;4.15;2.40;;;;;;;;;;2032078;29;20082;-88
2022/09/04 02:36:41;;;;;;;5.97;2.85;;;;;;;;;;2031409;29;20059;-89
2022/09/04 02:37:49;;;;;;;7.35;3.17;;;;;;;;;;2028011;29;20024;-88
2022/09/04 02:39:01;;;;;;;3.60;2.60;;;;;;;;;;2031013;29;20039;-88
2022/09/04 02:40:13;;;;;;;4.00;2.85;;;;;;;;;;2031963;29;20056;-88
2022/09/04 02:41:32;;;;;;;4.38;2.55;;;;;;;;;;2039607;29;20601;-89
2022/09/04 02:43:05;;;;;;;4.88;3.00;;;;;;;;;;2040220;29;20506;-88
2022/09/04 02:44:24;;;;;;;3.40;2.53;;;;;;;;;;2008202;29;20436;-88
2022/09/04 02:45:35;;;;;;;3.10;2.35;;;;;;;;;;2025986;29;20080;-88
2022/09/04 02:46:55;;;;;;;4.25;2.22;;;;;;;;;;2025080;29;20091;-88
2022/09/04 02:48:04;;;;;;;6.00;2.30;;;;;;;;;;1688597;29;10163173;-89
2022/09/04 02:49:12;;;;;;;4.32;2.40;;;;;;;;;;2031427;29;20046;-88
2022/09/04 02:50:50;;;;;;;4.70;2.80;;;;;;;;;;2032211;29;20048;-88
2022/09/04 02:52:11;;;;;;;4.28;2.60;;;;;;;;;;2039877;29;20510;-89
2022/09/04 02:53:58;;;;;;;4.10;2.45;;;;;;;;;;2039769;29;20053;-89
2022/09/04 02:55:22;;;;;;;3.60;2.58;;;;;;;;;;2045317;29;20053;-89
2022/09/04 02:56:30;;;;;;;4.82;3.03;;;;;;;;;;2038500;29;20034;-88
2022/09/04 02:57:33;;;;;;;3.90;2.90;;;;;;;;;;2041170;29;20034;-89
2022/09/04 02:58:49;;;;;;;4.28;2.58;;;;;;;;;;2032350;29;20042;-89
2022/09/04 03:00:01;;;;;;;4.80;2.90;;;;;;;;;;2033769;29;20031;-89
2022/09/04 03:01:43;;;;;;;3.38;2.75;;;;;;;;;;2039948;29;20091;-89
2022/09/04 03:03:01;;;;;;;4.47;2.55;;;;;;;;;;2031343;29;20039;-88
2022/09/04 03:04:12;;;;;;;4.65;3.17;;;;;;;;;;2025700;29;20126;-87
2022/09/04 03:05:32;;;;;;;3.75;2.65;;;;;;;;;;2024669;29;20028;-87
2022/09/04 03:06:49;;;;;;;4.45;2.97;;;;;;;;;;2025711;29;20024;-89
2022/09/04 03:08:00;;;;;;;3.78;2.83;;;;;;;;;;2033576;29;20035;-88
2022/09/04 03:09:07;;;;;;;4.47;3.13;;;;;;;;;;1683990;29;10237622;-89
2022/09/04 03:10:33;;;;;;;4.15;2.72;;;;;;;;;;2024312;29;20064;-89
2022/09/04 03:11:47;;;;;;;5.22;2.80;;;;;;;;;;2034309;29;20047;-88
2022/09/04 03:12:58;;;;;;;3.33;2.60;;;;;;;;;;2031209;29;20024;-89
2022/09/04 03:14:09;;;;;;;3.90;2.67;;;;;;;;;;2024731;29;20028;-88
2022/09/04 03:15:29;;;;;;;3.28;2.63;;;;;;;;;;2032465;29;20398;-89
2022/09/04 03:17:05;;;;;;;4.45;3.00;;;;;;;;;;2031191;29;20046;-89
2022/09/04 03:18:34;;;;;;;4.57;2.83;;;;;;;;;;2027734;29;20024;-88
2022/09/04 03:19:41;;;;;;;4.32;2.88;;;;;;;;;;2035169;29;20038;-89
2022/09/04 03:20:50;;;;;;;4.30;2.55;;;;;;;;;;2031280;29;20111;-88
2022/09/04 03:21:56;;;;;;;4.25;2.95;;;;;;;;;;2025639;29;20484;-88
2022/09/04 03:23:12;;;;;;;4.30;2.83;;;;;;;;;;2026128;29;20095;-87
2022/09/04 03:24:43;;;;;;;3.92;3.30;;;;;;;;;;2034952;29;20032;-88
2022/09/04 03:25:52;;;;;;;;;;;;;;;;;;2031470;29;20066;-89
2022/09/04 03:26:58;;;;;;;6.53;3.35;;;;;;;;;;2031208;29;20323;-89
2022/09/04 03:28:00;;;;;;;5.47;3.25;;;;;;;;;;2023919;29;20033;-89
2022/09/04 03:29:14;;;;;;;5.65;3.40;;;;;;;;;;2023437;29;20484;-89
2022/09/04 03:30:16;;;;;;;5.55;3.08;;;;;;;;;;2033104;29;20107;-89
2022/09/04 03:31:22;;;;;;;4.03;2.90;;;;;;;;;;2030997;29;20023;-89
2022/09/04 03:32:31;;;;;;;4.63;3.67;;;;;;;;;;2023741;29;20028;-89
2022/09/04 03:33:42;;;;;;;4.95;4.25;;;;;;;;;;2024156;29;20112;-89
2022/09/04 03:34:58;;;;;;;;;;;;;;;;;;2033333;29;20027;-89
2022/09/04 03:36:01;;;;;;;6.45;4.35;;;;;;;;;;2031143;29;20297;-89
2022/09/04 03:37:08;;;;;;;4.97;3.75;;;;;;;;;;2031757;29;20163;-89
2022/09/04 03:38:21;;;;;;;4.40;3.58;;;;;;;;;;2039520;29;20403;-89
2022/09/04 03:39:48;;;;;;;5.72;3.50;;;;;;;;;;2031166;29;20035;-89
2022/09/04 03:41:07;;;;;;;3.88;2.94;;;;;;;;;;2026199;29;10255357;-89
2022/09/04 03:42:20;;;;;;;4.95;2.85;;;;;;;;;;2038835;29;20256;-89
2022/09/04 03:43:47;;;;;;;5.60;3.55;;;;;;;;;;2031051;29;20123;-89
2022/09/04 03:45:26;;;;;;;4.25;3.13;;;;;;;;;;2034858;29;20407;-89
2022/09/04 03:47:07;;;;;;;4.15;3.00;;;;;;;;;;2030985;29;20209;-89
2022/09/04 03:48:30;;;;;;;4.68;2.97;;;;;;;;;;2027993;29;20036;-88
2022/09/04 03:49:50;;;;;;;4.78;3.30;;;;;;;;;;2030610;29;20032;-89
2022/09/04 03:50:57;;;;;;;4.35;3.00;;;;;;;;;;2022717;29;20500;-89
2022/09/04 03:52:31;;;;;;;5.28;2.90;;;;;;;;;;2023452;29;20141;-89
2022/09/04 03:53:40;;;;;;;3.85;2.60;;;;;;;;;;2032542;29;20103;-90
2022/09/04 03:54:58;;;;;;;4.55;2.95;;;;;;;;;;2039769;29;20039;-90
2022/09/04 03:56:20;;;;;;;5.10;3.05;;;;;;;;;;2039423;29;20460;-88
2022/09/04 03:57:49;;;;;;;5.22;3.55;;;;;;;;;;2031008;29;20480;-89
2022/09/04 03:59:14;;;;;;;4.53;3.00;;;;;;;;;;2034897;29;20039;-88
2022/09/04 04:00:20;;;;;;;5.70;3.10;;;;;;;;;;2031028;29;20036;-88
2022/09/04 04:01:42;;;;;;;4.32;3.42;;;;;;;;;;2031509;29;20135;-89
2022/09/04 04:02:54;;;;;;;5.05;3.55;;;;;;;;;;2039540;29;20114;-89
2022/09/04 04:04:14;;;;;;;4.28;3.47;;;;;;;;;;2031420;29;20035;-89
2022/09/04 04:05:51;;;;;;;7.70;3.22;;;;;;;;;;2033787;29;20032;-88
2022/09/04 04:06:55;;;;;;;5.07;3.72;;;;;;;;;;1669294;29;10090224;-88
2022/09/04 04:08:01;;;;;;;4.65;3.40;;;;;;;;;;1999870;29;20461;-88
2022/09/04 04:09:10;;;;;;;4.95;3.75;;;;;;;;;;2013747;29;20037;-88
2022/09/04 04:10:35;;;;;;;6.30;3.00;;;;;;;;;;2030885;29;20028;-89
2022/09/04 04:12:09;;;;;;;3.83;2.80;;;;;;;;;;2033998;29;20130;-87
2022/09/04 04:14:04;;;;;;;5.78;3.42;;;;;;;;;;2030787;29;20043;-88
2022/09/04 04:15:26;;;;;;;4.97;3.10;;;;;;;;;;2021690;29;20488;-88
2022/09/04 04:16:39;;;;;;;5.35;3.70;;;;;;;;;;2025280;29;20036;-90
2022/09/04 04:17:48;;;;;;;5.65;3.22;;;;;;;;;;2032647;29;20056;-87
2022/09/04 04:19:10;;;;;;;6.85;3.05;;;;;;;;;;2039178;29;20494;-88
2022/09/04 04:20:37;;;;;;;5.32;3.70;;;;;;;;;;2039514;29;20035;-88
2022/09/04 04:21:53;;;;;;;4.53;3.33;;;;;;;;;;2039632;29;20187;-89
2022/09/04 04:23:09;;;;;;;5.22;4.15;;;;;;;;;;2039713;29;20388;-89
2022/09/04 04:24:28;;;;;;;7.78;3.70;;;;;;;;;;2039635;29;20035;-88
2022/09/04 04:25:41;;;;;;;6.35;3.28;;;;;;;;;;2030883;29;20567;-88
2022/09/04 04:26:55;;;;;;;6.35;4.22;;;;;;;;;;2024845;29;20048;-88
2022/09/04 04:28:01;;;;;;;5.47;3.33;;;;;;;;;;2032557;29;20032;-89
2022/09/04 04:29:26;;;;;;;6.70;4.07;;;;;;;;;;2030664;29;20038;-89
2022/09/04 04:30:42;;;;;;;6.60;4.30;;;;;;;;;;2026597;29;20599;-88
2022/09/04 04:32:20;;;;;;;7.22;4.47;;;;;;;;;;2034646;29;20047;-90
2022/09/04 04:33:32;;;;;;;5.32;3.78;;;;;;;;;;2040913;29;20388;-89
2022/09/04 04:34:46;;;;;;;10.68;3.95;;;;;;;;;;2032406;29;20028;-90
2022/09/04 04:36:11;;;;;;;6.00;3.65;;;;;;;;;;1731796;29;10104295;-90
2022/09/04 04:37:26;;;;;;;8.18;5.30;;;;;;;;;;2020080;29;20265;-89
2022/09/04 04:38:35;;;;;;;5.38;3.40;;;;;;;;;;2034250;29;20549;-89
2022/09/04 04:39:50;;;;;;;9.20;3.80;;;;;;;;;;2032431;29;20028;-89
2022/09/04 04:40:50;;;;;;;5.65;4.03;;;;;;;;;;2032249;29;20114;-89
2022/09/04 04:42:07;;;;;;;4.93;3.67;;;;;;;;;;2024523;29;20033;-89
2022/09/04 04:43:29;;;;;;;6.43;4.25;;;;;;;;;;2026760;29;20084;-89
2022/09/04 04:46:17;;;;;;;3.97;3.45;;;;;;;;;;2036082;29;20106;-89
2022/09/04 04:47:56;;;;;;;4.28;2.95;;;;;;;;;;2040950;29;20495;-89
2022/09/04 04:49:30;;;;;;;5.60;3.40;;;;;;;;;;2032199;29;20032;-87
2022/09/04 04:50:42;;;;;;;4.40;3.50;;;;;;;;;;2032189;29;20028;-90
2022/09/04 04:51:58;;;;;;;5.18;3.53;;;;;;;;;;2033771;29;20119;-88
2022/09/04 04:53:13;;;;;;;4.32;3.30;;;;;;;;;;2040887;29;20032;-89
2022/09/04 04:54:29;;;;;;;4.25;3.17;;;;;;;;;;2040625;29;20442;-87
2022/09/04 04:55:50;;;;;;;4.75;3.65;;;;;;;;;;2040852;29;20102;-87
2022/09/04 04:56:56;;;;;;;5.57;3.35;;;;;;;;;;2040884;29;20027;-88
2022/09/04 04:58:10;;;;;;;4.32;3.40;;;;;;;;;;2032022;29;20070;-88
2022/09/04 04:59:53;;;;;;;5.13;3.50;;;;;;;;;;2033933;29;20396;-88
2022/09/04 05:01:11;;;;;;;5.25;3.80;;;;;;;;;;2020365;29;20044;-88
2022/09/04 05:02:29;;;;;;;4.20;3.45;;;;;;;;;;2028088;29;20032;-88
2022/09/04 05:03:35;;;;;;;4.70;3.65;;;;;;;;;;2036743;29;20074;-87
2022/09/04 05:05:01;;;;;;;5.07;3.78;;;;;;;;;;2032204;29;20100;-88
2022/09/04 05:06:30;;;;;;;6.85;3.13;;;;;;;;;;2035670;29;20095;-88
2022/09/04 05:08:02;;;;;;;7.55;3.97;;;;;;;;;;2040700;29;20502;-88
2022/09/04 05:09:06;;;;;;;5.53;4.00;;;;;;;;;;2040683;29;20024;-87
2022/09/04 05:10:35;;;;;;;6.00;3.80;;;;;;;;;;2031818;29;20061;-87
2022/09/04 05:12:03;;;;;;;5.00;3.90;;;;;;;;;;2027815;29;20212;-88
2022/09/04 05:13:18;;;;;;;5.35;4.00;;;;;;;;;;2035568;29;20031;-90
2022/09/04 05:14:53;;;;;;;7.55;4.22;;;;;;;;;;2032163;29;20035;-89
2022/09/04 05:16:11;;;;;;;5.78;3.75;;;;;;;;;;2028723;29;20119;-89
2022/09/04 05:17:23;;;;;;;6.43;4.57;;;;;;;;;;2032109;29;20455;-89
2022/09/04 05:18:34;;;;;;;5.78;4.05;;;;;;;;;;2033615;29;20028;-89
2022/09/04 05:19:46;;;;;;;4.97;4.07;;;;;;;;;;2040709;29;20497;-89
2022/09/04 05:20:52;;;;;;;6.03;3.40;;;;;;;;;;2042281;29;20039;-89
2022/09/04 05:22:04;;;;;;;4.80;3.78;;;;;;;;;;2031357;29;20035;-89
2022/09/04 05:23:17;;;;;;;5.53;4.18;;;;;;;;;;2033290;29;20062;-89
2022/09/04 05:25:02;;;;;;;4.70;3.75;;;;;;;;;;1692925;29;10000690;-89
2022/09/04 05:26:11;;;;;;;6.47;3.50;;;;;;;;;;2029846;29;20460;-88
2022/09/04 05:27:30;;;;;;;5.20;3.60;;;;;;;;;;2025263;29;20140;-89
2022/09/04 05:28:53;;;;;;;5.03;3.55;;;;;;;;;;2026364;29;20034;-88
2022/09/04 05:30:17;;;;;;;4.93;3.50;;;;;;;;;;2026864;29;20079;-89
2022/09/04 05:31:42;;;;;;;4.57;3.40;;;;;;;;;;2026877;29;20028;-89
2022/09/04 05:32:52;;;;;;;4.63;3.42;;;;;;;;;;2026952;29;20483;-89
2022/09/04 05:34:01;;;;;;;4.83;3.40;;;;;;;;;;2025154;29;20461;-89
2022/09/04 05:35:26;;;;;;;5.15;3.92;;;;;;;;;;2032893;29;20676;-89
2022/09/04 05:36:41;;;;;;;8.35;4.28;;;;;;;;;;2031929;29;20024;-89
2022/09/04 05:37:49;;;;;;;4.60;4.03;;;;;;;;;;2025654;29;20032;-89
2022/09/04 05:39:04;;;;;;;4.25;3.85;;;;;;;;;;1683388;29;10309803;-88
2022/09/04 05:40:37;;;;;;;4.78;3.38;;;;;;;;;;2031591;29;20127;-88
2022/09/04 05:41:58;;;;;;;4.82;3.30;;;;;;;;;;2035952;29;20035;-88
2022/09/04 05:43:08;;;;;;;4.70;3.42;;;;;;;;;;2039980;29;20514;-90
2022/09/04 05:44:17;;;;;;;4.18;2.92;;;;;;;;;;2040288;29;20080;-89
2022/09/04 05:45:23;;;;;;;4.32;3.08;;;;;;;;;;2031831;29;20034;-89
2022/09/04 05:47:05;;;;;;;4.40;3.10;;;;;;;;;;2022736;29;20103;-88
2022/09/04 05:48:20;;;;;;;4.13;3.10;;;;;;;;;;2040779;29;20062;-87
2022/09/04 05:49:39;;;;;;;3.90;3.28;;;;;;;;;;2040658;29;20395;-87
2022/09/04 05:51:31;;;;;;;4.75;3.53;;;;;;;;;;2032346;29;20024;-86
2022/09/04 05:52:52;;;;;;;4.63;3.30;;;;;;;;;;1698352;29;10001073;-87
2022/09/04 05:54:42;;;;;;;3.20;2.90;;;;;;;;;;2032231;29;20115;-89
2022/09/04 05:55:48;;;;;;;6.50;3.42;;;;;;;;;;2008716;29;20060;-89
2022/09/04 05:56:51;;;;;;;3.75;2.92;;;;;;;;;;2026024;29;20043;-89
2022/09/04 05:57:57;;;;;;;3.70;2.50;;;;;;;;;;2024397;29;20049;-89
2022/09/04 05:59:06;;;;;;;3.70;2.60;;;;;;;;;;2032344;29;20043;-88
2022/09/04 06:00:15;;;;;;;4.15;2.78;;;;;;;;;;2031809;29;20256;-88
2022/09/04 06:08:06;;;;;;;;;;;;;;;;;;;;;
2022/09/04 06:09:30;;;;;;;3.92;2.58;;;;;;;;;;2047405;28;20032;-87
2022/09/04 06:10:52;;;;;;;2.83;2.03;;;;;;;;;;2044014;29;20407;-89
2022/09/04 06:12:20;;;;;;;3.83;2.40;;;;;;;;;;2032617;29;20143;-89
2022/09/04 06:13:45;;;;;;;3.28;2.38;;;;;;;;;;2036098;29;20036;-89
2022/09/04 06:15:05;;;;;;;3.97;2.97;;;;;;;;;;2031661;29;20035;-89
2022/09/04 06:16:43;;;;;;;4.65;2.70;;;;;;;;;;2026739;29;20028;-90
2022/09/04 06:17:59;;;;;;;4.80;3.95;;;;;;;;;;2028527;29;20139;-89
2022/09/04 06:19:24;;;;;;;2.70;2.38;;;;;;;;;;2031496;29;20037;-89
2022/09/04 06:21:24;;;;;;;;;;;;;;;;;;;;;
2022/09/04 06:23:04;;;;;;;6.35;2.67;;;;;;;;;;2047183;29;20012;-89
2022/09/04 06:24:13;;;;;;;3.28;2.55;;;;;;;;;;2032296;29;20159;-89
2022/09/04 06:28:10;;;;;;;4.68;2.63;;;;;;;;;;2031227;29;20036;-89
2022/09/04 06:29:48;;;;;;;4.50;3.13;;;;;;;;;;2023408;29;20123;-89
2022/09/04 06:31:10;;;;;;;4.45;3.10;;;;;;;;;;1695833;29;10054149;-89
2022/09/04 06:32:26;;;;;;;3.30;2.65;;;;;;;;;;2031408;29;20456;-90
2022/09/04 06:33:45;;;;;;;2.78;2.30;;;;;;;;;;2025560;29;20324;-89
2022/09/04 06:35:03;;;;;;;3.05;2.78;;;;;;;;;;2034399;29;20012;-89
2022/09/04 06:36:30;;;;;;;3.92;2.78;;;;;;;;;;2031298;29;20063;-89
2022/09/04 06:37:45;;;;;;;3.25;2.65;;;;;;;;;;2032089;29;20506;-89
2022/09/04 06:38:52;;;;;;;4.07;2.63;;;;;;;;;;2040134;29;20032;-88
2022/09/04 06:40:20;;;;;;;3.65;2.45;;;;;;;;;;2040073;29;20039;-88
2022/09/04 06:41:51;;;;;;;3.33;2.45;;;;;;;;;;2040179;29;20426;-89
2022/09/04 06:42:59;;;;;;;;;;;;;;;;;;2041103;29;20043;-89
2022/09/04 06:44:02;;;;;;;5.60;3.45;;;;;;;;;;2031487;29;19911;-89
2022/09/04 06:45:58;;;;;;;;;;;;;;;;;;;;;
2022/09/04 06:47:39;;;;;;;3.55;2.78;;;;;;;;;;2039852;29;20350;-89
2022/09/04 06:49:05;;;;;;;3.78;2.55;;;;;;;;;;2031216;29;20071;-88
2022/09/04 06:50:52;;;;;;;4.05;2.83;;;;;;;;;;2026755;29;20028;-89
2022/09/04 06:52:19;;;;;;;4.00;2.80;;;;;;;;;;2029598;29;20020;-89
2022/09/04 06:55:56;;;;;;;3.30;2.70;;;;;;;;;;2015702;29;20491;-88
2022/09/04 06:57:47;;;;;;;2.92;2.47;;;;;;;;;;2015464;29;20429;-88
2022/09/04 06:59:35;;;;;;;6.50;2.13;;;;;;;;;;2030514;29;20119;-88
2022/09/04 07:03:03;;;;;;;2.88;2.40;;;;;;;;;;2018090;29;20496;-89
2022/09/04 07:05:12;;;;;;;2.55;2.05;;;;;;;;;;2023054;29;20066;-88
2022/09/04 07:07:02;;;;;;;2.63;2.15;;;;;;;;;;2007400;29;20033;-88
2022/09/04 07:10:10;;;;;;;;;;;;;;;;;;1998271;29;20030;-89
2022/09/04 07:16:13;;;;;;;;;;;;;;;;;;;;;
2022/09/04 07:17:31;;;;;;;2.28;1.85;;;;;;;;;;1984544;29;20047;-88
2022/09/04 07:18:57;;;;;;;3.00;2.10;;;;;;;;;;2019396;29;20040;-88
2022/09/04 07:20:18;;;;;;;2.47;1.92;;;;;;;;;;2047089;29;20510;-89
2022/09/04 07:21:27;;;;;;;2.10;1.63;;;;;;;;;;2047667;29;20054;-89
2022/09/04 07:22:46;;;;;;;3.40;1.58;;;;;;;;;;2041306;29;20362;-88
2022/09/04 07:23:53;;;;;;;3.17;1.70;;;;;;;;;;2036516;29;20039;-88
2022/09/04 07:25:00;;;;;;;2.35;1.88;;;;;;;;;;2038462;29;20130;-88
2022/09/04 07:26:10;;;;;;;1.90;1.70;;;;;;;;;;2045797;29;20031;-89
2022/09/04 07:27:35;;;;;;;2.03;1.50;;;;;;;;;;2034562;29;20027;-88
2022/09/04 07:28:52;;;;;;;3.47;1.80;;;;;;;;;;2036774;29;20070;-88
2022/09/04 07:29:59;;;;;;;2.42;1.70;;;;;;;;;;1718608;28;10254994;-88
2022/09/04 07:31:28;;;;;;;1.90;1.65;;;;;;;;;;2036311;29;20248;-88
2022/09/04 07:32:44;;;;;;;1.95;1.50;;;;;;;;;;2034643;29;20328;-88
2022/09/04 07:34:00;;;;;;;1.85;1.60;;;;;;;;;;2034922;29;20167;-89
2022/09/04 07:35:18;;;;;;;2.00;1.58;;;;;;;;;;2038448;29;20031;-89
2022/09/04 07:36:54;;;;;;;2.28;1.90;;;;;;;;;;2041271;29;20038;-89
2022/09/04 07:38:02;;;;;;;2.15;1.67;;;;;;;;;;2026787;29;20139;-88
2022/09/04 07:39:27;;;;;;;2.13;1.80;;;;;;;;;;2039569;29;20400;-89
2022/09/04 07:40:38;;;;;;;3.17;1.77;;;;;;;;;;2031370;29;20028;-89
2022/09/04 07:41:55;;;;;;;2.90;2.00;;;;;;;;;;2024441;29;20028;-89
2022/09/04 07:43:20;;;;;;;2.47;2.03;;;;;;;;;;2033462;29;20032;-89
2022/09/04 07:44:38;;;;;;;3.25;2.95;;;;;;;;;;2030955;29;20567;-89
2022/09/04 07:45:53;;;;;;;2.03;1.80;;;;;;;;;;2030680;29;20536;-89
2022/09/04 07:47:00;;;;;;;1.63;1.52;;;;;;;;;;2032337;29;20032;-89
2022/09/04 07:48:16;;;;;;;4.28;1.80;;;;;;;;;;2030465;29;20099;-89
2022/09/04 07:49:32;;;;;;;1.88;1.58;;;;;;;;;;2032608;29;20467;-89
2022/09/04 07:50:39;;;;;;;1.28;1.18;;;;;;;;;;1689877;29;10269305;-89
2022/09/04 07:52:18;;;;;;;2.13;1.58;;;;;;;;;;2039002;29;20129;-90
2022/09/04 07:53:47;;;;;;;;;;;;;;;;;;;;;
2022/09/04 07:54:57;;;;;;;1.38;1.25;;;;;;;;;;2033262;29;20035;-89
2022/09/04 07:56:27;;;;;;;1.70;1.40;;;;;;;;;;2030408;29;20044;-88
2022/09/04 07:57:40;;;;;;;1.30;1.20;;;;;;;;;;2026414;29;20031;-89
2022/09/04 07:58:51;;;;;;;1.88;1.42;;;;;;;;;;2031965;29;20036;-88
2022/09/04 08:00:12;;;;;;;2.10;1.52;;;;;;;;;;2030212;29;20044;-88
2022/09/04 08:01:40;;;;;;;2.20;1.52;;;;;;;;;;2033271;29;20050;-88
2022/09/04 08:03:12;;;;;;;2.50;1.55;;;;;;;;;;2030836;29;20187;-88
2022/09/04 08:04:31;;;;;;;2.35;1.50;;;;;;;;;;2042375;29;20447;-89
2022/09/04 08:05:51;;;;;;;2.05;1.40;;;;;;;;;;2042652;29;20336;-89
2022/09/04 08:06:58;;;;;;;1.90;1.30;;;;;;;;;;2045901;29;20036;-89
2022/09/04 08:08:20;;;;;;;1.63;1.33;;;;;;;;;;2044306;29;20554;-89
2022/09/04 08:09:23;;;;;;;1.48;1.20;;;;;;;;;;2038529;29;20456;-89
2022/09/04 08:10:41;;;;;;;2.30;1.83;;;;;;;;;;2038435;29;20040;-89
2022/09/04 08:12:02;;;;;;;2.03;1.20;;;;;;;;;;2047041;29;20134;-90
2022/09/04 08:13:12;;;;;;;1.27;1.10;;;;;;;;;;2038230;29;20042;-89
2022/09/04 08:14:33;;;;;;;3.53;1.30;;;;;;;;;;2039838;29;20039;-89
2022/09/04 08:15:49;;;;;;;;;;;;;;;;;;2047651;29;20027;-90